createdAt,value
2018-01-30T00:02:03.500Z,10.17
2018-01-30T00:04:32.273Z,9.98
2018-01-30T00:07:01.025Z,9.78
2018-01-30T00:09:29.578Z,9.87
2018-01-30T00:11:58.110Z,9.65
2018-01-30T00:14:26.556Z,9.87
2018-01-30T00:16:55.406Z,10.02
2018-01-30T00:19:24.512Z,9.78
2018-01-30T00:21:52.968Z,9.73
2018-01-30T00:24:21.450Z,9.73
2018-01-30T00:26:49.905Z,9.92
2018-01-30T00:29:18.397Z,9.99
2018-01-30T00:31:47.211Z,10.01
2018-01-30T00:34:15.756Z,9.76
2018-01-30T00:36:44.247Z,10.05
2018-01-30T00:39:12.682Z,9.97
2018-01-30T00:41:41.558Z,10.17
2018-01-30T00:44:10.105Z,10.25
2018-01-30T00:46:38.540Z,9.71
2018-01-30T00:49:07.577Z,9.61
2018-01-30T00:51:36.035Z,9.75
2018-01-30T00:54:04.478Z,9.74
2018-01-30T00:56:33.120Z,9.84
2018-01-30T00:59:01.565Z,9.92
2018-01-30T01:01:30.401Z,10.08
2018-01-30T01:03:58.974Z,9.85
2018-01-30T01:06:27.668Z,10.10
2018-01-30T01:08:56.198Z,10.49
2018-01-30T01:11:25.048Z,10.31
2018-01-30T01:13:53.514Z,10.24
2018-01-30T01:16:22.268Z,10.15
2018-01-30T01:18:51.194Z,10.22
2018-01-30T01:21:19.653Z,10.39
2018-01-30T01:23:48.081Z,9.98
2018-01-30T01:26:17.231Z,9.66
2018-01-30T01:28:46.245Z,9.82
2018-01-30T01:31:15.894Z,10.10
2018-01-30T01:33:44.748Z,10.12
2018-01-30T01:36:13.243Z,9.96
2018-01-30T01:38:41.675Z,9.90
2018-01-30T01:41:10.751Z,10.06
2018-01-30T01:43:39.211Z,9.92
2018-01-30T01:46:07.647Z,9.86
2018-01-30T01:48:36.103Z,10.01
2018-01-30T01:51:06.107Z,9.63
2018-01-30T01:53:34.636Z,9.61
2018-01-30T01:56:03.158Z,10.05
2018-01-30T01:58:31.628Z,10.10
2018-01-30T02:01:00.102Z,9.83
2018-01-30T02:03:28.540Z,9.47
2018-01-30T02:05:58.608Z,10.18
2018-01-30T02:08:27.063Z,10.02
2018-01-30T02:10:55.544Z,10.09
2018-01-30T02:13:23.988Z,10.31
2018-01-30T02:15:52.829Z,9.99
2018-01-30T02:18:21.283Z,10.18
2018-01-30T02:20:51.133Z,10.00
2018-01-30T02:23:19.850Z,10.24
2018-01-30T02:25:48.785Z,10.44
2018-01-30T02:28:17.250Z,10.24
2018-01-30T02:30:45.757Z,10.28
2018-01-30T02:33:14.220Z,10.40
2018-01-30T02:35:43.097Z,10.11
2018-01-30T02:38:11.543Z,10.05
2018-01-30T02:40:40.088Z,10.07
2018-01-30T02:43:08.528Z,9.84
2018-01-30T02:45:37.370Z,9.56
2018-01-30T02:48:07.161Z,9.42
2018-01-30T02:50:35.607Z,9.76
2018-01-30T02:53:04.437Z,9.78
2018-01-30T02:55:32.903Z,9.80
2018-01-30T02:58:01.339Z,9.96
2018-01-30T03:00:29.848Z,10.15
2018-01-30T03:02:59.356Z,9.84
2018-01-30T03:05:27.802Z,10.06
2018-01-30T03:07:56.360Z,10.04
2018-01-30T03:10:24.849Z,10.20
2018-01-30T03:12:53.667Z,10.01
2018-01-30T03:15:22.513Z,10.01
2018-01-30T03:17:51.667Z,10.03
2018-01-30T03:20:20.767Z,10.06
2018-01-30T03:22:49.612Z,10.00
2018-01-30T03:25:18.069Z,9.85
2018-01-30T03:27:46.660Z,9.83
2018-01-30T03:30:16.540Z,10.27
2018-01-30T03:32:44.980Z,10.51
2018-01-30T03:35:13.445Z,10.45
2018-01-30T03:37:41.881Z,10.01
2018-01-30T03:40:10.716Z,9.84
2018-01-30T03:42:39.296Z,9.82
2018-01-30T03:45:08.125Z,10.15
2018-01-30T03:47:37.071Z,10.18
2018-01-30T03:50:05.531Z,10.19
2018-01-30T03:52:33.994Z,10.45
2018-01-30T03:55:03.081Z,10.28
2018-01-30T03:57:32.026Z,10.57
2018-01-30T04:00:00.729Z,10.70
2018-01-30T04:02:29.285Z,10.57
2018-01-30T04:04:57.774Z,9.90
2018-01-30T04:07:26.244Z,10.31
2018-01-30T04:09:54.792Z,10.38
2018-01-30T04:12:24.315Z,10.38
2018-01-30T04:14:52.765Z,10.03
2018-01-30T04:17:21.681Z,9.86
2018-01-30T04:19:50.126Z,9.88
2018-01-30T04:22:25.504Z,10.12
2018-01-30T04:24:57.690Z,9.70
2018-01-30T04:27:27.636Z,9.48
2018-01-30T04:29:56.442Z,9.61
2018-01-30T04:32:24.879Z,9.63
2018-01-30T04:34:53.372Z,9.65
2018-01-30T04:37:21.818Z,9.39
2018-01-30T04:39:53.405Z,9.46
2018-01-30T04:42:21.858Z,9.35
2018-01-30T04:44:50.308Z,9.69
2018-01-30T04:47:18.754Z,9.96
2018-01-30T04:49:47.196Z,10.07
2018-01-30T04:52:16.700Z,10.68
2018-01-30T04:54:45.724Z,10.32
2018-01-30T04:57:14.177Z,9.95
2018-01-30T04:59:42.688Z,10.45
2018-01-30T05:02:11.986Z,10.47
2018-01-30T05:04:40.462Z,10.04
2018-01-30T05:07:09.093Z,10.36
2018-01-30T05:09:37.541Z,10.25
2018-01-30T05:12:05.985Z,10.09
2018-01-30T05:14:34.493Z,9.97
2018-01-30T05:17:03.008Z,10.13
2018-01-30T05:19:31.465Z,9.88
2018-01-30T05:22:01.152Z,9.62
2018-01-30T05:24:29.597Z,9.79
2018-01-30T05:26:58.545Z,9.94
2018-01-30T05:29:38.232Z,9.48
2018-01-30T05:32:07.177Z,9.50
2018-01-30T05:34:36.865Z,9.77
2018-01-30T05:37:05.320Z,9.82
2018-01-30T05:39:34.254Z,9.78
2018-01-30T05:42:02.694Z,9.79
2018-01-30T05:44:31.529Z,9.96
2018-01-30T05:47:04.322Z,9.98
2018-01-30T05:49:32.888Z,9.60
2018-01-30T05:52:01.524Z,9.86
2018-01-30T05:54:30.634Z,9.59
2018-01-30T05:56:59.585Z,9.73
2018-01-30T05:59:28.556Z,9.38
2018-01-30T06:01:57.050Z,9.78
2018-01-30T06:04:25.846Z,9.79
2018-01-30T06:06:54.292Z,9.69
2018-01-30T06:09:22.762Z,9.83
2018-01-30T06:11:51.209Z,9.88
2018-01-30T06:14:19.645Z,9.74
2018-01-30T06:16:48.380Z,9.49
2018-01-30T06:19:17.539Z,9.42
2018-01-30T06:21:45.995Z,9.60
2018-01-30T06:24:15.312Z,9.69
2018-01-30T06:26:43.758Z,9.75
2018-01-30T06:29:12.821Z,9.63
2018-01-30T06:31:41.370Z,9.86
2018-01-30T06:34:10.517Z,9.80
2018-01-30T06:36:39.458Z,9.85
2018-01-30T06:39:08.354Z,10.09
2018-01-30T06:41:36.828Z,10.16
2018-01-30T06:44:05.323Z,10.33
2018-01-30T06:46:34.683Z,10.19
2018-01-30T06:49:03.156Z,10.51
2018-01-30T06:51:32.017Z,10.31
2018-01-30T06:54:00.465Z,10.15
2018-01-30T06:56:30.449Z,10.16
2018-01-30T06:58:59.415Z,10.51
2018-01-30T07:01:28.164Z,10.32
2018-01-30T07:03:56.617Z,9.79
2018-01-30T07:06:25.069Z,10.02
2018-01-30T07:08:53.909Z,10.45
2018-01-30T07:11:22.383Z,10.56
2018-01-30T07:13:56.377Z,10.38
2018-01-30T07:16:25.327Z,9.97
2018-01-30T07:18:54.686Z,10.09
2018-01-30T07:21:23.281Z,10.42
2018-01-30T07:23:51.734Z,10.33
2018-01-30T07:26:22.286Z,10.18
2018-01-30T07:28:52.158Z,10.41
2018-01-30T07:31:21.099Z,10.59
2018-01-30T07:33:49.572Z,10.70
2018-01-30T07:36:18.021Z,10.51
2018-01-30T07:38:46.949Z,10.18
2018-01-30T07:41:15.657Z,10.40
2018-01-30T07:43:44.469Z,10.62
2018-01-30T07:46:13.028Z,10.71
2018-01-30T07:48:41.498Z,11.10
2018-01-30T07:51:10.790Z,10.78
2018-01-30T07:53:40.264Z,10.70
2018-01-30T07:56:09.293Z,10.65
2018-01-30T07:58:38.568Z,10.28
2018-01-30T08:01:07.009Z,10.73
2018-01-30T08:03:35.453Z,10.13
2018-01-30T08:06:03.901Z,10.64
2018-01-30T08:08:32.410Z,10.89
2018-01-30T08:11:00.846Z,10.77
2018-01-30T08:13:30.872Z,10.95
2018-01-30T08:16:15.383Z,10.56
2018-01-30T08:18:49.582Z,10.69
2018-01-30T08:21:18.021Z,10.81
2018-01-30T08:23:46.953Z,10.78
2018-01-30T08:26:15.441Z,10.84
2018-01-30T08:28:45.128Z,10.73
2018-01-30T08:31:13.653Z,11.06
2018-01-30T08:33:42.113Z,11.32
2018-01-30T08:36:10.594Z,10.97
2018-01-30T08:38:39.747Z,10.69
2018-01-30T08:41:08.673Z,10.70
2018-01-30T08:43:37.099Z,11.11
2018-01-30T08:46:07.259Z,11.46
2018-01-30T08:48:35.613Z,10.90
2018-01-30T08:51:04.379Z,11.05
2018-01-30T08:53:35.291Z,11.04
2018-01-30T08:56:03.710Z,10.83
2018-01-30T08:58:33.654Z,10.63
2018-01-30T09:01:02.423Z,11.03
2018-01-30T09:03:31.191Z,11.06
2018-01-30T09:05:59.567Z,10.86
2018-01-30T09:08:28.027Z,11.26
2018-01-30T09:10:56.408Z,11.38
2018-01-30T09:13:24.788Z,11.48
2018-01-30T09:15:53.132Z,11.54
2018-01-30T09:18:21.491Z,11.54
2018-01-30T09:20:50.336Z,11.40
2018-01-30T09:23:18.716Z,11.20
2018-01-30T09:25:47.095Z,11.14
2018-01-30T09:28:15.446Z,11.39
2018-01-30T09:30:43.809Z,11.28
2018-01-30T09:33:12.181Z,11.39
2018-01-30T09:35:41.016Z,11.65
2018-01-30T09:38:09.399Z,11.77
2018-01-30T09:40:37.772Z,11.52
2018-01-30T09:43:06.137Z,11.61
2018-01-30T09:45:34.521Z,11.79
2018-01-30T09:48:02.931Z,11.76
2018-01-30T09:50:31.283Z,12.00
2018-01-30T09:52:59.706Z,11.50
2018-01-30T09:55:28.129Z,11.39
2018-01-30T09:57:56.501Z,11.55
2018-01-30T10:00:24.844Z,11.73
2018-01-30T10:02:53.288Z,11.76
2018-01-30T10:05:21.636Z,11.63
2018-01-30T10:07:50.049Z,11.47
2018-01-30T10:10:18.420Z,11.43
2018-01-30T10:12:46.772Z,11.25
2018-01-30T10:15:15.141Z,11.37
2018-01-30T10:17:43.588Z,11.70
2018-01-30T10:20:11.966Z,11.64
2018-01-30T10:22:40.421Z,11.63
2018-01-30T10:25:08.775Z,11.46
2018-01-30T10:27:37.133Z,11.61
2018-01-30T10:30:05.939Z,11.94
2018-01-30T10:32:34.355Z,11.89
2018-01-30T10:35:02.692Z,11.81
2018-01-30T10:37:31.049Z,12.14
2018-01-30T10:39:59.787Z,11.92
2018-01-30T10:42:28.164Z,12.12
2018-01-30T10:44:56.519Z,12.27
2018-01-30T10:47:24.890Z,12.03
2018-01-30T10:49:53.299Z,11.85
2018-01-30T10:52:21.653Z,12.14
2018-01-30T10:54:50.070Z,12.13
2018-01-30T10:57:18.553Z,12.20
2018-01-30T10:59:46.916Z,11.68
2018-01-30T11:02:15.286Z,11.97
2018-01-30T11:04:43.655Z,11.94
2018-01-30T11:07:12.004Z,11.96
2018-01-30T11:09:40.431Z,12.10
2018-01-30T11:12:08.775Z,11.74
2018-01-30T11:14:37.202Z,11.95
2018-01-30T11:17:05.610Z,12.05
2018-01-30T11:19:34.056Z,12.35
2018-01-30T11:22:02.750Z,12.30
2018-01-30T11:24:31.140Z,12.13
2018-01-30T11:26:59.506Z,11.89
2018-01-30T11:29:27.870Z,12.23
2018-01-30T11:31:56.248Z,12.47
2018-01-30T11:34:24.657Z,12.38
2018-01-30T11:36:53.112Z,11.98
2018-01-30T11:39:21.456Z,12.12
2018-01-30T11:41:49.871Z,12.39
2018-01-30T11:44:18.222Z,12.80
2018-01-30T11:46:46.603Z,12.55
2018-01-30T11:49:14.959Z,12.59
2018-01-30T11:51:43.700Z,12.45
2018-01-30T11:54:12.077Z,12.42
2018-01-30T11:56:40.440Z,12.53
2018-01-30T11:59:08.883Z,12.61
2018-01-30T12:01:37.742Z,12.38
2018-01-30T12:04:06.200Z,12.38
2018-01-30T12:06:34.548Z,12.52
2018-01-30T12:09:02.959Z,12.96
2018-01-30T12:11:31.357Z,13.11
2018-01-30T12:13:59.721Z,13.14
2018-01-30T12:16:28.092Z,13.18
2018-01-30T12:18:56.476Z,13.27
2018-01-30T12:21:24.849Z,12.88
2018-01-30T12:23:53.227Z,12.39
2018-01-30T12:26:21.592Z,12.21
2018-01-30T12:28:49.935Z,12.18
2018-01-30T12:31:18.694Z,12.54
2018-01-30T12:33:47.070Z,12.73
2018-01-30T12:36:15.468Z,12.59
2018-01-30T12:38:43.814Z,12.95
2018-01-30T12:41:12.236Z,12.53
2018-01-30T12:43:41.012Z,12.71
2018-01-30T12:46:09.511Z,12.84
2018-01-30T12:48:38.356Z,12.80
2018-01-30T12:51:06.712Z,12.90
2018-01-30T12:53:35.111Z,12.82
2018-01-30T12:56:03.497Z,12.81
2018-01-30T12:58:31.879Z,12.92
2018-01-30T13:01:00.244Z,12.69
2018-01-30T13:03:28.628Z,12.93
2018-01-30T13:05:57.000Z,13.12
2018-01-30T13:08:25.348Z,12.90
2018-01-30T13:10:53.780Z,13.03
2018-01-30T13:13:22.127Z,13.07
2018-01-30T13:15:50.595Z,12.90
2018-01-30T13:18:18.965Z,12.35
2018-01-30T13:20:47.320Z,12.31
2018-01-30T13:23:16.093Z,12.54
2018-01-30T13:25:44.454Z,12.35
2018-01-30T13:28:12.867Z,12.45
2018-01-30T13:30:41.602Z,12.39
2018-01-30T13:33:09.993Z,12.20
2018-01-30T13:35:38.359Z,12.77
2018-01-30T13:38:06.707Z,12.97
2018-01-30T13:40:35.067Z,12.67
2018-01-30T13:43:03.917Z,12.39
2018-01-30T13:45:32.328Z,12.19
2018-01-30T13:48:00.777Z,12.28
2018-01-30T13:50:29.162Z,12.64
2018-01-30T13:52:57.524Z,12.80
2018-01-30T13:55:25.881Z,11.94
2018-01-30T13:57:54.285Z,12.04
2018-01-30T14:00:22.662Z,12.23
2018-01-30T14:02:51.011Z,12.48
2018-01-30T14:05:19.431Z,12.25
2018-01-30T14:07:47.792Z,12.16
2018-01-30T14:10:16.156Z,11.99
2018-01-30T14:12:44.510Z,11.84
2018-01-30T14:15:13.358Z,11.89
2018-01-30T14:17:41.712Z,11.99
2018-01-30T14:20:10.056Z,11.82
2018-01-30T14:22:38.896Z,12.25
2018-01-30T14:25:07.274Z,12.55
2018-01-30T14:27:35.756Z,12.08
2018-01-30T14:30:04.109Z,12.24
2018-01-30T14:32:32.516Z,12.52
2018-01-30T14:35:00.893Z,12.42
2018-01-30T14:37:29.245Z,12.21
2018-01-30T14:39:57.649Z,12.16
2018-01-30T14:42:26.028Z,12.40
2018-01-30T14:44:54.376Z,12.32
2018-01-30T14:47:22.740Z,12.37
2018-01-30T14:49:51.116Z,11.81
2018-01-30T14:52:20.030Z,11.86
2018-01-30T14:54:48.379Z,11.67
2018-01-30T14:57:17.125Z,11.51
2018-01-30T14:59:45.519Z,11.23
2018-01-30T15:02:13.892Z,11.48
2018-01-30T15:04:42.254Z,11.85
2018-01-30T15:07:10.711Z,12.22
2018-01-30T15:09:39.069Z,12.00
2018-01-30T15:12:07.903Z,11.56
2018-01-30T15:14:36.360Z,11.71
2018-01-30T15:17:04.704Z,11.88
2018-01-30T15:19:33.456Z,11.77
2018-01-30T15:22:01.807Z,11.53
2018-01-30T15:24:30.172Z,11.48
2018-01-30T15:26:58.529Z,11.46
2018-01-30T15:29:26.976Z,11.59
2018-01-30T15:31:55.349Z,11.57
2018-01-30T15:34:23.696Z,11.53
2018-01-30T15:36:52.047Z,11.55
2018-01-30T15:39:20.895Z,11.47
2018-01-30T15:41:49.248Z,11.56
2018-01-30T15:44:17.593Z,11.43
2018-01-30T15:46:46.340Z,11.29
2018-01-30T15:49:14.684Z,11.55
2018-01-30T15:51:43.057Z,11.60
2018-01-30T15:54:11.426Z,11.73
2018-01-30T15:56:40.316Z,11.88
2018-01-30T15:59:09.151Z,11.86
2018-01-30T16:01:37.525Z,12.02
2018-01-30T16:04:05.909Z,12.08
2018-01-30T16:06:34.289Z,11.74
2018-01-30T16:09:02.655Z,11.80
2018-01-30T16:11:31.037Z,11.83
2018-01-30T16:13:59.436Z,11.75
2018-01-30T16:16:27.806Z,11.65
2018-01-30T16:18:56.151Z,11.73
2018-01-30T16:21:24.505Z,11.50
2018-01-30T16:23:53.340Z,11.30
2018-01-30T16:26:21.724Z,11.26
2018-01-30T16:28:50.092Z,11.30
2018-01-30T16:31:18.477Z,11.32
2018-01-30T16:33:46.835Z,11.29
2018-01-30T16:36:15.203Z,11.44
2018-01-30T16:38:43.555Z,11.22
2018-01-30T16:41:11.896Z,11.12
2018-01-30T16:43:40.258Z,11.10
2018-01-30T16:46:08.664Z,10.96
2018-01-30T16:48:37.017Z,10.91
2018-01-30T16:51:05.372Z,10.87
2018-01-30T16:53:33.789Z,11.04
2018-01-30T16:56:02.295Z,11.16
2018-01-30T16:58:30.634Z,10.90
2018-01-30T17:00:59.028Z,10.73
2018-01-30T17:03:27.398Z,10.90
2018-01-30T17:05:55.747Z,11.01
2018-01-30T17:08:24.095Z,10.92
2018-01-30T17:10:52.550Z,10.81
2018-01-30T17:13:20.917Z,10.73
2018-01-30T17:15:49.304Z,10.84
2018-01-30T17:18:17.660Z,10.84
2018-01-30T17:20:46.029Z,10.54
2018-01-30T17:23:14.376Z,10.77
2018-01-30T17:25:43.136Z,10.23
2018-01-30T17:28:11.475Z,10.51
2018-01-30T17:30:39.848Z,10.58
2018-01-30T17:33:08.227Z,10.62
2018-01-30T17:35:36.660Z,10.68
2018-01-30T17:38:05.017Z,10.79
2018-01-30T17:40:33.392Z,10.66
2018-01-30T17:43:01.772Z,10.73
2018-01-30T17:45:30.135Z,10.72
2018-01-30T17:47:58.612Z,10.74
2018-01-30T17:50:26.971Z,10.40
2018-01-30T17:52:55.721Z,10.55
2018-01-30T17:55:24.076Z,10.71
2018-01-30T17:57:52.464Z,10.54
2018-01-30T18:00:20.828Z,10.64
2018-01-30T18:02:49.214Z,10.65
2018-01-30T18:05:17.620Z,10.70
2018-01-30T18:07:46.082Z,10.46
2018-01-30T18:10:14.442Z,10.60
2018-01-30T18:12:42.810Z,10.59
2018-01-30T18:15:11.289Z,10.46
2018-01-30T18:17:39.659Z,10.54
2018-01-30T18:20:08.080Z,10.45
2018-01-30T18:22:36.462Z,10.57
2018-01-30T18:25:04.836Z,10.50
2018-01-30T18:27:33.319Z,10.54
2018-01-30T18:30:01.678Z,10.43
2018-01-30T18:32:30.029Z,10.36
2018-01-30T18:34:58.383Z,10.38
2018-01-30T18:37:27.128Z,10.31
2018-01-30T18:39:55.499Z,10.30
2018-01-30T18:42:23.852Z,10.43
2018-01-30T18:44:52.229Z,10.41
2018-01-30T18:47:20.646Z,10.33
2018-01-30T18:49:49.011Z,10.25
2018-01-30T18:52:17.364Z,10.33
2018-01-30T18:54:45.758Z,10.31
2018-01-30T18:57:14.139Z,10.33
2018-01-30T18:59:42.542Z,10.24
2018-01-30T19:02:11.352Z,10.13
2018-01-30T19:04:39.700Z,10.28
2018-01-30T19:07:08.101Z,10.25
2018-01-30T19:09:36.473Z,10.23
2018-01-30T19:12:04.969Z,10.15
2018-01-30T19:14:33.323Z,10.08
2018-01-30T19:17:01.710Z,10.16
2018-01-30T19:19:30.088Z,10.26
2018-01-30T19:21:58.442Z,10.29
2018-01-30T19:24:26.795Z,10.37
2018-01-30T19:26:55.650Z,10.32
2018-01-30T19:29:24.007Z,10.30
2018-01-30T19:31:52.369Z,10.40
2018-01-30T19:34:20.719Z,10.35
2018-01-30T19:36:49.459Z,10.32
2018-01-30T19:39:17.856Z,10.24
2018-01-30T19:41:46.232Z,10.20
2018-01-30T19:44:14.584Z,10.22
2018-01-30T19:46:42.945Z,10.39
2018-01-30T19:49:11.303Z,10.23
2018-01-30T19:51:40.138Z,10.33
2018-01-30T19:54:08.498Z,10.29
2018-01-30T19:56:36.892Z,10.30
2018-01-30T19:59:05.228Z,10.35
2018-01-30T20:01:34.138Z,10.12
2018-01-30T20:04:02.483Z,10.17
2018-01-30T20:06:31.247Z,9.96
2018-01-30T20:08:59.605Z,10.20
2018-01-30T20:11:29.848Z,10.15
2018-01-30T20:13:58.316Z,9.95
2018-01-30T20:16:26.668Z,10.00
2018-01-30T20:18:55.078Z,10.17
2018-01-30T20:21:23.450Z,10.11
2018-01-30T20:23:51.816Z,10.22
2018-01-30T20:26:20.163Z,10.29
2018-01-30T20:28:48.575Z,10.29
2018-01-30T20:31:16.940Z,10.06
2018-01-30T20:33:45.336Z,10.14
2018-01-30T20:36:13.725Z,10.21
2018-01-30T20:38:42.112Z,10.13
2018-01-30T20:41:10.555Z,10.04
2018-01-30T20:43:38.963Z,10.04
2018-01-30T20:46:07.428Z,10.00
2018-01-30T20:48:35.786Z,9.96
2018-01-30T20:51:04.173Z,10.02
2018-01-30T20:53:32.575Z,9.90
2018-01-30T20:56:01.283Z,9.89
2018-01-30T20:58:29.647Z,9.86
2018-01-30T21:00:58.458Z,9.79
2018-01-30T21:03:28.850Z,9.67
2018-01-30T21:05:57.219Z,9.73
2018-01-30T21:08:27.135Z,9.70
2018-01-30T21:10:55.699Z,9.65
2018-01-30T21:13:24.099Z,9.46
2018-01-30T21:15:52.903Z,9.43
2018-01-30T21:18:21.524Z,9.39
2018-01-30T21:20:50.390Z,9.56
2018-01-30T21:23:19.088Z,9.55
2018-01-30T21:25:49.090Z,9.33
2018-01-30T21:28:19.546Z,9.33
2018-01-30T21:30:48.193Z,9.30
2018-01-30T21:33:16.857Z,9.20
2018-01-30T21:35:45.799Z,9.12
2018-01-30T21:38:14.370Z,9.21
2018-01-30T21:40:44.336Z,9.17
2018-01-30T21:43:13.734Z,9.16
2018-01-30T21:45:42.978Z,9.14
2018-01-30T21:48:11.343Z,8.99
2018-01-30T21:50:39.729Z,9.00
2018-01-30T21:53:08.756Z,9.13
2018-01-30T21:55:37.937Z,8.98
2018-01-30T21:58:06.567Z,8.88
2018-01-30T22:00:35.164Z,8.80
2018-01-30T22:03:03.620Z,8.60
2018-01-30T22:05:34.022Z,8.69
2018-01-30T22:08:06.244Z,8.83
2018-01-30T22:10:35.074Z,8.91
2018-01-30T22:13:03.566Z,9.03
2018-01-30T22:15:32.044Z,8.80
2018-01-30T22:18:00.711Z,9.03
2018-01-30T22:20:29.508Z,8.85
2018-01-30T22:22:58.401Z,9.01
2018-01-30T22:25:27.310Z,8.95
2018-01-30T22:27:56.057Z,8.97
2018-01-30T22:30:24.720Z,9.00
2018-01-30T22:32:53.705Z,9.15
2018-01-30T22:35:23.091Z,9.06
2018-01-30T22:37:52.321Z,9.20
2018-01-30T22:40:20.807Z,9.17
2018-01-30T22:42:50.693Z,9.23
2018-01-30T22:45:19.204Z,9.14
